Terminal Aerodrome Forecast
Issued by NWS

Home | Current Version | Previous Version | Text Only | Print | Product List | Glossary On
Versions: 1 2 3 4 5 6 7 8 9 10 11 12 13 14 15 16 17
000
FTUS43 KJKL 042339
TAFSME
TAF
KSME 042339Z 0500/0524 VRB06KT P6SM VCTS BKN050CB
     FM050100 VRB04KT 5SM BR SCT060
     FM050600 00000KT 1/2SM FG SCT005
     FM051300 18004KT P6SM SCT040=

USA.gov is the U.S. government's official web portal to all federal, state and local government web resources and services.